Time;durP1;ratioP1;P1;durP2;ratioP2;P2;SDS_P1;SDS_P2;PMS_P1;PMS_P2;Temp;Humidity;BMP_temperature;BMP_pressure;BME280_temperature;BME280_humidity;BME280_pressure;Samples;Min_cycle;Max_cycle;Signal;HPM_P1;HPM_P2
2022/11/30 00:02:29;;;;;;;36.83;19.87;;;;;;;;;;5012968;28;20221;-77
2022/11/30 00:05:33;;;;;;;35.97;19.43;;;;;;;;;;5024106;28;20184;-77
2022/11/30 00:08:37;;;;;;;35.53;19.27;;;;;;;;;;5023805;28;20671;-77
2022/11/30 00:11:41;;;;;;;36.03;19.47;;;;;;;;;;5012226;28;20220;-77
2022/11/30 00:14:45;;;;;;;37.30;20.03;;;;;;;;;;5036137;28;20517;-77
2022/11/30 00:17:55;;;;;;;39.63;20.13;;;;;;;;;;5023881;28;20188;-77
2022/11/30 00:21:04;;;;;;;38.73;20.37;;;;;;;;;;5041956;28;20338;-77
2022/11/30 00:24:08;;;;;;;35.77;20.17;;;;;;;;;;5063687;28;20180;-77
2022/11/30 00:27:12;;;;;;;34.07;19.27;;;;;;;;;;5061520;28;20682;-77
2022/11/30 00:30:16;;;;;;;36.43;20.60;;;;;;;;;;5021023;28;20611;-77
2022/11/30 00:33:20;;;;;;;33.73;19.70;;;;;;;;;;5021031;28;20180;-77
2022/11/30 00:36:24;;;;;;;39.03;20.80;;;;;;;;;;5032158;28;20188;-77
2022/11/30 00:39:29;;;;;;;33.13;19.43;;;;;;;;;;5043644;28;20176;-77
2022/11/30 00:42:33;;;;;;;37.03;19.73;;;;;;;;;;5043187;28;20678;-77
2022/11/30 00:45:37;;;;;;;33.43;19.60;;;;;;;;;;5031926;28;20195;-76
2022/11/30 00:48:41;;;;;;;38.17;19.60;;;;;;;;;;5031577;28;20195;-77
2022/11/30 00:51:45;;;;;;;34.87;19.40;;;;;;;;;;5043220;28;20212;-77
2022/11/30 00:54:49;;;;;;;35.07;19.20;;;;;;;;;;5043542;28;20514;-77
2022/11/30 00:57:53;;;;;;;39.07;20.50;;;;;;;;;;5032174;28;20180;-77
2022/11/30 01:00:58;;;;;;;37.63;19.93;;;;;;;;;;5038443;28;20227;-77
2022/11/30 01:04:02;;;;;;;36.07;19.50;;;;;;;;;;5055502;28;20188;-77
2022/11/30 01:07:07;;;;;;;35.67;20.53;;;;;;;;;;5031984;28;20635;-77
2022/11/30 01:10:11;;;;;;;39.13;20.27;;;;;;;;;;5042762;28;20173;-77
2022/11/30 01:13:15;;;;;;;35.63;19.67;;;;;;;;;;5046005;28;20203;-77
2022/11/30 01:16:23;;;;;;;38.50;20.47;;;;;;;;;;5011734;28;20180;-76
2022/11/30 01:19:27;;;;;;;36.80;19.67;;;;;;;;;;5011546;28;20177;-77
2022/11/30 01:22:31;;;;;;;32.67;18.77;;;;;;;;;;5022628;28;20208;-77
2022/11/30 01:25:37;;;;;;;40.33;21.10;;;;;;;;;;5011945;28;20181;-77
2022/11/30 01:28:45;;;;;;;40.60;20.20;;;;;;;;;;5023044;28;20511;-77
2022/11/30 01:31:49;;;;;;;39.07;20.60;;;;;;;;;;5022359;28;20217;-77
2022/11/30 01:34:54;;;;;;;40.60;20.53;;;;;;;;;;5022259;28;20197;-77
2022/11/30 01:37:58;;;;;;;39.20;19.90;;;;;;;;;;5022591;28;20198;-77
2022/11/30 01:41:04;;;;;;;39.17;20.50;;;;;;;;;;5022258;28;20217;-77
2022/11/30 01:44:14;;;;;;;41.70;21.00;;;;;;;;;;5012495;28;20177;-77
2022/11/30 01:47:56;;;;;;;42.13;21.70;;;;;;;;;;5010595;28;20173;-77
2022/11/30 01:51:00;;;;;;;41.30;21.27;;;;;;;;;;5022318;28;20213;-77
2022/11/30 01:54:08;;;;;;;41.90;21.80;;;;;;;;;;5022217;28;20628;-77
2022/11/30 01:57:25;;;;;;;43.63;21.67;;;;;;;;;;5010657;28;20632;-77
2022/11/30 02:00:29;;;;;;;40.70;19.73;;;;;;;;;;5035731;28;20209;-77
2022/11/30 02:03:57;;;;;;;40.67;20.77;;;;;;;;;;5025008;28;20181;-77
2022/11/30 02:07:04;;;;;;;42.67;20.63;;;;;;;;;;5010609;28;20180;-77
2022/11/30 02:10:17;;;;;;;39.33;20.53;;;;;;;;;;4998405;28;20569;-77
2022/11/30 02:13:32;;;;;;;48.00;22.63;;;;;;;;;;5021892;28;20185;-77
2022/11/30 02:16:47;;;;;;;49.40;22.93;;;;;;;;;;5021351;28;20197;-77
2022/11/30 02:20:24;;;;;;;48.73;23.80;;;;;;;;;;5010218;28;20197;-76
2022/11/30 02:23:31;;;;;;;50.97;22.67;;;;;;;;;;5022158;28;20185;-77
2022/11/30 02:26:58;;;;;;;48.63;23.50;;;;;;;;;;5021325;28;20196;-77
2022/11/30 02:30:13;;;;;;;45.77;22.47;;;;;;;;;;5021024;28;20185;-77
2022/11/30 02:33:22;;;;;;;53.07;24.90;;;;;;;;;;5034882;28;20181;-77
2022/11/30 02:36:27;;;;;;;51.70;24.23;;;;;;;;;;5021726;28;20192;-77
2022/11/30 02:39:31;;;;;;;47.20;22.53;;;;;;;;;;5010355;28;20185;-77
2022/11/30 02:42:35;;;;;;;56.33;23.60;;;;;;;;;;5021994;28;20208;-77
2022/11/30 02:46:00;;;;;;;51.33;23.03;;;;;;;;;;5010137;28;20189;-77
2022/11/30 02:49:12;;;;;;;55.87;24.30;;;;;;;;;;5023581;28;20184;-77
2022/11/30 02:52:18;;;;;;;52.13;23.63;;;;;;;;;;5021720;28;20208;-77
2022/11/30 02:55:23;;;;;;;55.80;24.80;;;;;;;;;;5011220;28;20192;-77
2022/11/30 02:58:27;;;;;;;60.70;24.57;;;;;;;;;;5020714;28;20546;-76
2022/11/30 03:01:31;;;;;;;59.63;23.67;;;;;;;;;;5020808;28;20239;-77
2022/11/30 03:04:35;;;;;;;53.90;24.10;;;;;;;;;;5010059;28;20185;-77
2022/11/30 03:07:39;;;;;;;56.77;25.07;;;;;;;;;;5020679;28;20173;-77
2022/11/30 03:10:44;;;;;;;56.27;24.33;;;;;;;;;;5009452;28;20220;-76
2022/11/30 03:13:48;;;;;;;61.67;24.17;;;;;;;;;;5020747;28;20181;-76
2022/11/30 03:16:52;;;;;;;58.17;25.57;;;;;;;;;;5033477;28;20537;-76
2022/11/30 03:19:56;;;;;;;55.87;25.60;;;;;;;;;;5024253;28;20196;-76
2022/11/30 03:23:01;;;;;;;59.43;25.37;;;;;;;;;;5003114;28;20177;-77
2022/11/30 03:26:07;;;;;;;56.20;23.57;;;;;;;;;;5057133;28;20214;-77
2022/11/30 03:29:11;;;;;;;55.70;23.97;;;;;;;;;;5064853;28;20521;-77
2022/11/30 03:32:15;;;;;;;60.37;25.03;;;;;;;;;;5052969;28;20550;-77
2022/11/30 03:35:19;;;;;;;57.73;24.17;;;;;;;;;;5076509;28;20520;-76
2022/11/30 03:38:23;;;;;;;58.37;24.13;;;;;;;;;;5064860;28;20195;-76
2022/11/30 03:41:27;;;;;;;56.37;24.63;;;;;;;;;;5076218;28;20231;-78
2022/11/30 03:44:31;;;;;;;70.33;25.67;;;;;;;;;;5052706;28;20175;-77
2022/11/30 03:47:36;;;;;;;63.93;25.90;;;;;;;;;;5052442;28;20187;-77
2022/11/30 03:50:42;;;;;;;62.70;25.57;;;;;;;;;;5064065;28;20519;-77
2022/11/30 03:53:46;;;;;;;58.93;23.83;;;;;;;;;;5064504;28;20195;-77
2022/11/30 03:56:50;;;;;;;58.77;24.50;;;;;;;;;;5063925;28;20226;-77
2022/11/30 03:59:55;;;;;;;58.00;24.57;;;;;;;;;;5076224;28;20175;-77
2022/11/30 04:02:59;;;;;;;64.40;26.20;;;;;;;;;;5064316;28;20172;-77
2022/11/30 04:06:04;;;;;;;56.97;24.07;;;;;;;;;;5076652;28;20183;-77
2022/11/30 04:09:09;;;;;;;62.10;25.80;;;;;;;;;;5076218;28;20184;-77
2022/11/30 04:12:13;;;;;;;58.60;26.23;;;;;;;;;;5064550;28;20223;-77
2022/11/30 04:15:17;;;;;;;56.07;24.47;;;;;;;;;;5063500;28;20179;-77
2022/11/30 04:18:23;;;;;;;54.97;22.73;;;;;;;;;;5063675;28;20180;-77
2022/11/30 04:21:27;;;;;;;58.80;24.60;;;;;;;;;;5052284;28;20227;-77
2022/11/30 04:24:31;;;;;;;61.77;26.37;;;;;;;;;;5051966;28;20175;-77
2022/11/30 04:27:35;;;;;;;57.97;24.47;;;;;;;;;;5052871;28;20180;-77
2022/11/30 04:30:39;;;;;;;61.10;25.67;;;;;;;;;;5051965;28;20535;-77
2022/11/30 04:33:43;;;;;;;57.80;25.13;;;;;;;;;;5075417;28;20175;-77
2022/11/30 04:36:47;;;;;;;61.97;25.53;;;;;;;;;;5052036;28;20176;-77
2022/11/30 04:39:51;;;;;;;65.23;24.67;;;;;;;;;;5063392;28;20517;-77
2022/11/30 04:42:56;;;;;;;59.43;25.10;;;;;;;;;;5053390;28;20175;-80
2022/11/30 04:46:00;;;;;;;57.90;25.00;;;;;;;;;;5037720;28;20196;-78
2022/11/30 04:49:04;;;;;;;57.97;25.13;;;;;;;;;;5030063;28;20199;-78
2022/11/30 04:52:08;;;;;;;57.50;24.37;;;;;;;;;;5067492;28;20211;-77
2022/11/30 04:55:12;;;;;;;61.90;24.13;;;;;;;;;;5053418;28;20175;-77
2022/11/30 04:58:16;;;;;;;62.87;25.93;;;;;;;;;;5053160;28;20191;-77
2022/11/30 05:01:20;;;;;;;56.00;24.93;;;;;;;;;;5044074;28;20222;-77
2022/11/30 05:04:24;;;;;;;60.73;25.43;;;;;;;;;;5068011;28;20171;-77
2022/11/30 05:07:28;;;;;;;67.10;27.00;;;;;;;;;;5041605;28;20626;-78
2022/11/30 05:10:33;;;;;;;52.93;25.37;;;;;;;;;;5047712;28;20199;-77
2022/11/30 05:13:37;;;;;;;58.83;24.87;;;;;;;;;;5059907;28;20180;-77
2022/11/30 05:16:41;;;;;;;55.87;25.37;;;;;;;;;;5058505;28;20196;-77
2022/11/30 05:19:46;;;;;;;56.60;24.80;;;;;;;;;;5046146;28;20175;-77
2022/11/30 05:22:50;;;;;;;54.00;24.07;;;;;;;;;;5033842;28;20211;-77
2022/11/30 05:25:54;;;;;;;56.07;24.13;;;;;;;;;;5053410;28;20195;-77
2022/11/30 05:28:58;;;;;;;53.33;24.33;;;;;;;;;;5052862;28;20183;-77
2022/11/30 05:32:03;;;;;;;55.23;24.53;;;;;;;;;;5054284;28;20662;-77
2022/11/30 05:35:07;;;;;;;62.13;26.17;;;;;;;;;;5064503;28;20180;-77
2022/11/30 05:38:11;;;;;;;52.30;25.73;;;;;;;;;;5064470;28;20175;-78
2022/11/30 05:41:16;;;;;;;54.57;24.90;;;;;;;;;;5069392;28;20223;-79
2022/11/30 05:44:21;;;;;;;52.93;24.63;;;;;;;;;;5064757;28;20200;-77
2022/11/30 05:47:25;;;;;;;54.27;24.70;;;;;;;;;;5056235;28;20180;-77
2022/11/30 05:50:29;;;;;;;53.67;24.50;;;;;;;;;;5055347;28;20199;-77
2022/11/30 05:53:34;;;;;;;54.80;24.37;;;;;;;;;;5054402;28;20183;-77
2022/11/30 05:56:38;;;;;;;46.30;22.93;;;;;;;;;;5040617;28;20180;-78
2022/11/30 05:59:43;;;;;;;54.73;24.97;;;;;;;;;;5054002;28;20184;-77
2022/11/30 06:02:47;;;;;;;55.97;24.70;;;;;;;;;;5062394;28;20219;-76
2022/11/30 06:05:52;;;;;;;50.70;23.80;;;;;;;;;;5050455;28;20187;-76
2022/11/30 06:08:56;;;;;;;55.80;25.17;;;;;;;;;;5050150;28;20175;-76
2022/11/30 06:12:00;;;;;;;49.63;24.77;;;;;;;;;;5072278;28;20223;-76
2022/11/30 06:15:04;;;;;;;52.60;24.87;;;;;;;;;;5064460;28;20199;-76
2022/11/30 06:18:11;;;;;;;56.50;25.07;;;;;;;;;;5061714;28;20523;-76
2022/11/30 06:21:15;;;;;;;46.80;23.83;;;;;;;;;;5063979;28;20223;-77
2022/11/30 06:24:19;;;;;;;54.20;25.03;;;;;;;;;;5021999;28;20177;-76
2022/11/30 06:27:23;;;;;;;49.80;24.07;;;;;;;;;;5063414;28;20198;-77
2022/11/30 06:30:27;;;;;;;54.93;25.90;;;;;;;;;;5029857;28;20184;-77
2022/11/30 06:33:32;;;;;;;49.13;24.80;;;;;;;;;;5041392;28;20180;-77
2022/11/30 06:36:36;;;;;;;53.00;24.83;;;;;;;;;;5029856;28;20180;-77
2022/11/30 06:39:40;;;;;;;56.27;25.60;;;;;;;;;;5041523;28;20519;-77
2022/11/30 06:42:45;;;;;;;54.63;24.50;;;;;;;;;;5029984;28;20220;-77
2022/11/30 06:45:49;;;;;;;51.40;24.60;;;;;;;;;;5041506;28;20180;-77
2022/11/30 06:48:53;;;;;;;55.77;26.53;;;;;;;;;;5030147;28;20172;-77
2022/11/30 06:51:57;;;;;;;58.63;26.53;;;;;;;;;;5052834;28;20215;-76
2022/11/30 06:55:01;;;;;;;57.93;26.00;;;;;;;;;;5040964;28;20184;-76
2022/11/30 06:58:07;;;;;;;54.23;26.07;;;;;;;;;;5032330;28;20180;-76
2022/11/30 07:01:13;;;;;;;50.73;25.50;;;;;;;;;;5032848;28;20211;-76
2022/11/30 07:04:18;;;;;;;59.07;28.40;;;;;;;;;;5056470;28;20172;-76
2022/11/30 07:07:22;;;;;;;59.37;26.83;;;;;;;;;;5032753;28;20176;-76
2022/11/30 07:10:26;;;;;;;63.60;29.10;;;;;;;;;;5056411;28;20545;-76
2022/11/30 07:13:30;;;;;;;61.47;26.33;;;;;;;;;;5057419;28;20524;-77
2022/11/30 07:16:35;;;;;;;55.27;24.83;;;;;;;;;;5044899;28;20184;-77
2022/11/30 07:19:39;;;;;;;59.47;26.10;;;;;;;;;;5033792;28;20180;-76
2022/11/30 07:22:43;;;;;;;59.33;25.43;;;;;;;;;;5056656;28;20220;-76
2022/11/30 07:26:07;;;;;;;61.07;27.00;;;;;;;;;;5056737;28;20191;-77
2022/11/30 07:29:11;;;;;;;58.63;26.07;;;;;;;;;;5044822;28;20184;-77
2022/11/30 07:32:15;;;;;;;53.73;27.17;;;;;;;;;;5044720;28;20212;-77
2022/11/30 07:35:19;;;;;;;53.53;25.40;;;;;;;;;;5044526;28;20176;-77
2022/11/30 07:38:23;;;;;;;58.33;26.30;;;;;;;;;;5044721;28;20184;-76
2022/11/30 07:41:27;;;;;;;52.73;25.43;;;;;;;;;;5057200;28;20219;-77
2022/11/30 07:44:32;;;;;;;51.00;25.93;;;;;;;;;;5044398;28;20176;-76
2022/11/30 07:47:36;;;;;;;61.83;27.40;;;;;;;;;;5022489;28;20180;-77
2022/11/30 07:50:40;;;;;;;58.30;26.67;;;;;;;;;;5033544;28;20180;-76
2022/11/30 07:53:44;;;;;;;61.90;26.60;;;;;;;;;;5033136;28;20180;-76
2022/11/30 07:56:48;;;;;;;54.50;26.57;;;;;;;;;;5044251;28;20627;-77
2022/11/30 07:59:53;;;;;;;51.63;25.37;;;;;;;;;;5044192;28;20180;-77
2022/11/30 08:02:57;;;;;;;53.43;26.03;;;;;;;;;;5032655;28;20204;-77
2022/11/30 08:06:07;;;;;;;61.40;26.53;;;;;;;;;;5056351;28;20176;-77
2022/11/30 08:09:11;;;;;;;48.40;24.07;;;;;;;;;;5055510;28;20185;-77
2022/11/30 08:12:16;;;;;;;46.77;24.37;;;;;;;;;;5056154;28;20224;-77
2022/11/30 08:15:20;;;;;;;46.67;23.23;;;;;;;;;;5043966;28;20199;-77
2022/11/30 08:18:24;;;;;;;42.70;22.90;;;;;;;;;;5056511;28;20184;-77
2022/11/30 08:21:30;;;;;;;44.77;23.43;;;;;;;;;;5055672;28;20216;-76
2022/11/30 08:24:34;;;;;;;47.93;22.70;;;;;;;;;;5043977;28;20173;-76
2022/11/30 08:27:38;;;;;;;48.60;22.87;;;;;;;;;;5055897;28;20184;-76
2022/11/30 08:30:42;;;;;;;50.83;24.83;;;;;;;;;;5043232;28;20219;-76
2022/11/30 08:33:47;;;;;;;45.53;24.37;;;;;;;;;;5043189;28;20192;-76
2022/11/30 08:36:51;;;;;;;49.33;25.13;;;;;;;;;;5032000;28;20200;-76
2022/11/30 08:39:56;;;;;;;47.00;23.93;;;;;;;;;;5032138;28;20176;-77
2022/11/30 08:43:00;;;;;;;48.13;23.40;;;;;;;;;;5043620;28;20212;-76
2022/11/30 08:46:06;;;;;;;47.90;23.87;;;;;;;;;;5055414;28;20624;-77
2022/11/30 08:49:10;;;;;;;46.77;23.87;;;;;;;;;;5031915;28;20188;-77
2022/11/30 08:52:14;;;;;;;46.90;23.63;;;;;;;;;;5055194;28;20208;-77
2022/11/30 08:55:18;;;;;;;44.43;21.53;;;;;;;;;;5055799;28;20184;-77
2022/11/30 08:58:22;;;;;;;45.53;23.40;;;;;;;;;;5031787;28;20181;-77
2022/11/30 09:01:26;;;;;;;48.60;23.07;;;;;;;;;;5055011;28;20215;-77
2022/11/30 09:04:30;;;;;;;45.20;23.90;;;;;;;;;;5043409;28;20180;-76
2022/11/30 09:07:34;;;;;;;43.87;23.13;;;;;;;;;;5031257;28;20184;-76
2022/11/30 09:10:38;;;;;;;43.20;22.57;;;;;;;;;;5054724;28;20208;-77
2022/11/30 09:13:44;;;;;;;44.50;23.73;;;;;;;;;;5031300;28;20176;-76
2022/11/30 09:16:48;;;;;;;42.70;22.17;;;;;;;;;;5042793;28;20180;-76
2022/11/30 09:19:53;;;;;;;47.43;23.07;;;;;;;;;;5042470;28;20181;-76
2022/11/30 09:22:58;;;;;;;45.63;24.43;;;;;;;;;;5042016;28;20690;-76
2022/11/30 09:26:08;;;;;;;42.63;22.63;;;;;;;;;;5042104;28;20203;-76
2022/11/30 09:29:12;;;;;;;43.97;22.67;;;;;;;;;;5054569;28;20188;-76
2022/11/30 09:32:16;;;;;;;45.20;23.80;;;;;;;;;;5030819;28;20215;-77
2022/11/30 09:35:20;;;;;;;44.20;23.17;;;;;;;;;;5042178;28;20184;-77
2022/11/30 09:38:24;;;;;;;41.97;22.83;;;;;;;;;;5030516;28;20180;-76
2022/11/30 09:41:57;;;;;;;39.63;21.43;;;;;;;;;;5030655;28;20216;-77
2022/11/30 09:45:12;;;;;;;42.60;22.60;;;;;;;;;;5043484;28;20188;-77
2022/11/30 09:48:28;;;;;;;39.40;20.40;;;;;;;;;;5055304;28;20176;-77
2022/11/30 09:51:32;;;;;;;40.70;20.97;;;;;;;;;;5054787;28;20216;-77
2022/11/30 09:54:38;;;;;;;40.00;21.80;;;;;;;;;;5042602;28;20518;-77
2022/11/30 09:57:49;;;;;;;38.17;20.47;;;;;;;;;;5042564;28;20199;-77
2022/11/30 10:00:53;;;;;;;38.40;20.50;;;;;;;;;;5031211;28;20220;-77
2022/11/30 10:03:58;;;;;;;39.50;21.90;;;;;;;;;;5054893;28;20204;-77
2022/11/30 10:07:43;;;;;;;42.60;21.73;;;;;;;;;;5054650;28;20172;-77
2022/11/30 10:11:26;;;;;;;41.97;20.50;;;;;;;;;;5042031;28;20215;-77
2022/11/30 10:14:55;;;;;;;38.83;20.93;;;;;;;;;;4998001;28;20546;-77
2022/11/30 10:18:13;;;;;;;37.40;20.40;;;;;;;;;;5030784;28;20184;-77
2022/11/30 10:21:23;;;;;;;43.03;21.77;;;;;;;;;;5030727;28;20223;-77
2022/11/30 10:25:05;;;;;;;43.07;22.07;;;;;;;;;;5043809;28;20212;-77
2022/11/30 10:28:17;;;;;;;38.80;21.87;;;;;;;;;;5044411;28;20185;-78
2022/11/30 10:31:37;;;;;;;43.23;21.37;;;;;;;;;;5041211;28;20212;-77
2022/11/30 10:34:43;;;;;;;41.43;20.87;;;;;;;;;;5041796;28;20181;-77
2022/11/30 10:37:50;;;;;;;39.07;21.40;;;;;;;;;;5041248;28;20196;-78
2022/11/30 10:41:14;;;;;;;35.83;20.10;;;;;;;;;;5029677;28;20211;-78
2022/11/30 10:44:29;;;;;;;38.63;21.57;;;;;;;;;;5053514;28;20212;-77
2022/11/30 10:47:38;;;;;;;41.87;20.40;;;;;;;;;;5018224;28;20192;-77
2022/11/30 10:50:42;;;;;;;39.67;21.30;;;;;;;;;;5029791;28;20216;-77
2022/11/30 10:53:47;;;;;;;39.40;20.77;;;;;;;;;;5054222;28;20623;-77
2022/11/30 10:56:51;;;;;;;41.10;22.50;;;;;;;;;;5042206;28;20176;-77
2022/11/30 10:59:58;;;;;;;41.20;21.47;;;;;;;;;;5030545;28;20196;-77
2022/11/30 11:03:02;;;;;;;37.90;21.80;;;;;;;;;;5041855;28;20224;-77
2022/11/30 11:06:06;;;;;;;35.10;19.70;;;;;;;;;;5030767;28;20199;-77
2022/11/30 11:09:26;;;;;;;37.97;21.10;;;;;;;;;;5041432;28;20239;-76
2022/11/30 11:12:30;;;;;;;37.23;20.37;;;;;;;;;;5030625;28;20224;-77
2022/11/30 11:15:35;;;;;;;35.17;19.63;;;;;;;;;;5041676;28;20196;-77
2022/11/30 11:18:53;;;;;;;33.73;19.33;;;;;;;;;;5029674;28;20180;-77
2022/11/30 11:22:00;;;;;;;31.90;17.13;;;;;;;;;;5040572;28;20560;-77
2022/11/30 11:25:24;;;;;;;36.93;18.23;;;;;;;;;;5029783;28;20173;-77
2022/11/30 11:28:28;;;;;;;34.53;18.93;;;;;;;;;;5041386;28;20177;-77
2022/11/30 11:31:45;;;;;;;32.27;18.87;;;;;;;;;;5030158;28;20216;-77
2022/11/30 11:34:49;;;;;;;31.80;18.17;;;;;;;;;;5053625;28;20622;-78
2022/11/30 11:37:54;;;;;;;31.87;17.80;;;;;;;;;;5053342;28;20623;-77
2022/11/30 11:41:01;;;;;;;33.53;18.30;;;;;;;;;;5018179;28;20219;-77
2022/11/30 11:44:08;;;;;;;36.63;19.27;;;;;;;;;;5043698;28;20208;-77
2022/11/30 11:48:02;;;;;;;36.97;19.47;;;;;;;;;;5033779;28;20185;-77
2022/11/30 11:51:09;;;;;;;37.00;19.40;;;;;;;;;;4978046;28;20219;-77
2022/11/30 11:54:18;;;;;;;35.77;19.53;;;;;;;;;;5058303;28;20168;-77
2022/11/30 11:57:36;;;;;;;35.77;18.57;;;;;;;;;;5045721;28;20184;-77
2022/11/30 12:00:41;;;;;;;35.43;19.33;;;;;;;;;;5058108;28;20184;-77
2022/11/30 12:04:16;;;;;;;36.33;19.13;;;;;;;;;;5045540;28;20204;-77
2022/11/30 12:07:44;;;;;;;37.37;18.93;;;;;;;;;;5033328;28;20181;-77
2022/11/30 12:10:54;;;;;;;30.20;17.30;;;;;;;;;;5032969;28;20215;-77
2022/11/30 12:14:00;;;;;;;35.10;19.53;;;;;;;;;;5044022;28;20180;-77
2022/11/30 12:17:24;;;;;;;32.10;18.27;;;;;;;;;;5056463;28;20184;-77
2022/11/30 12:20:40;;;;;;;32.27;19.17;;;;;;;;;;5032829;28;20176;-77
2022/11/30 12:24:02;;;;;;;31.37;18.90;;;;;;;;;;5056530;28;20212;-77
2022/11/30 12:27:45;;;;;;;31.70;17.60;;;;;;;;;;5046017;28;20184;-77
2022/11/30 12:31:03;;;;;;;30.20;16.23;;;;;;;;;;5048991;28;20224;-77
2022/11/30 12:34:30;;;;;;;29.80;17.33;;;;;;;;;;5038542;28;20173;-77
2022/11/30 12:38:17;;;;;;;28.07;16.93;;;;;;;;;;5062389;28;20627;-77
2022/11/30 12:41:36;;;;;;;31.60;17.83;;;;;;;;;;5049187;28;20219;-77
2022/11/30 12:45:01;;;;;;;31.27;18.13;;;;;;;;;;5048533;28;20212;-77
2022/11/30 12:48:11;;;;;;;30.60;18.33;;;;;;;;;;5030772;28;20184;-77
2022/11/30 12:51:32;;;;;;;29.33;17.17;;;;;;;;;;5047081;28;20219;-76
2022/11/30 12:54:47;;;;;;;29.33;18.17;;;;;;;;;;5046386;28;20177;-77
2022/11/30 12:58:13;;;;;;;33.27;18.23;;;;;;;;;;5035181;28;20176;-77
2022/11/30 13:01:45;;;;;;;31.53;17.77;;;;;;;;;;5034417;28;20220;-76
2022/11/30 13:04:57;;;;;;;30.30;18.27;;;;;;;;;;5057820;28;20212;-77
2022/11/30 13:08:10;;;;;;;32.37;17.47;;;;;;;;;;5058406;28;20524;-77
2022/11/30 13:11:23;;;;;;;34.73;19.00;;;;;;;;;;5035770;28;20224;-77
2022/11/30 13:14:29;;;;;;;32.97;19.23;;;;;;;;;;5037548;28;20177;-77
2022/11/30 13:17:36;;;;;;;32.37;17.73;;;;;;;;;;5044700;28;20192;-77
2022/11/30 13:20:59;;;;;;;32.57;18.87;;;;;;;;;;5056107;28;20200;-77
2022/11/30 13:24:10;;;;;;;33.13;18.13;;;;;;;;;;5021235;28;20208;-77
2022/11/30 13:27:21;;;;;;;31.93;19.20;;;;;;;;;;5022224;28;20176;-77
2022/11/30 13:30:37;;;;;;;30.70;17.53;;;;;;;;;;5043507;28;20196;-77
2022/11/30 13:33:47;;;;;;;29.13;17.43;;;;;;;;;;5042967;28;20184;-77
2022/11/30 13:37:01;;;;;;;30.93;18.10;;;;;;;;;;5043273;28;20520;-77
2022/11/30 13:40:21;;;;;;;27.80;17.80;;;;;;;;;;5042683;28;20521;-77
2022/11/30 13:43:28;;;;;;;31.33;18.57;;;;;;;;;;5042858;28;20615;-78
2022/11/30 13:46:33;;;;;;;33.33;16.93;;;;;;;;;;5044124;28;20200;-77
2022/11/30 13:49:37;;;;;;;28.63;17.47;;;;;;;;;;5044022;28;20172;-77
2022/11/30 13:52:57;;;;;;;28.10;16.27;;;;;;;;;;5055406;28;20216;-77
2022/11/30 13:56:01;;;;;;;27.03;16.60;;;;;;;;;;5055822;28;20181;-77
2022/11/30 13:59:23;;;;;;;29.67;18.37;;;;;;;;;;5031995;28;20184;-77
2022/11/30 14:02:39;;;;;;;40.07;21.93;;;;;;;;;;5042661;28;20563;-77
2022/11/30 14:05:54;;;;;;;30.43;18.93;;;;;;;;;;5042415;28;20180;-77
2022/11/30 14:08:58;;;;;;;32.40;18.37;;;;;;;;;;5031718;28;20185;-77
2022/11/30 14:12:33;;;;;;;35.30;18.13;;;;;;;;;;5042998;28;20223;-77
2022/11/30 14:15:37;;;;;;;29.77;17.33;;;;;;;;;;5040433;28;20185;-77
2022/11/30 14:18:43;;;;;;;30.70;17.40;;;;;;;;;;5042500;28;20615;-77
2022/11/30 14:21:48;;;;;;;28.13;16.50;;;;;;;;;;5031001;28;20576;-77
2022/11/30 14:24:53;;;;;;;27.30;16.80;;;;;;;;;;5042017;28;20207;-77
2022/11/30 14:27:59;;;;;;;30.57;16.90;;;;;;;;;;5043862;28;20184;-77
2022/11/30 14:31:06;;;;;;;27.67;17.67;;;;;;;;;;5055096;28;20211;-77
2022/11/30 14:34:35;;;;;;;32.70;16.63;;;;;;;;;;5031967;28;20631;-77
2022/11/30 14:37:53;;;;;;;28.07;16.10;;;;;;;;;;5043408;28;20513;-77
2022/11/30 14:40:58;;;;;;;27.67;15.20;;;;;;;;;;5042031;28;20220;-77
2022/11/30 14:44:12;;;;;;;27.60;15.60;;;;;;;;;;5031309;28;20204;-77
2022/11/30 14:47:24;;;;;;;25.13;15.27;;;;;;;;;;5031410;28;20180;-77
2022/11/30 14:50:29;;;;;;;23.70;14.47;;;;;;;;;;5057407;28;20516;-77
2022/11/30 14:54:11;;;;;;;39.20;22.13;;;;;;;;;;5045346;28;20204;-77
2022/11/30 14:57:33;;;;;;;21.30;13.00;;;;;;;;;;5055804;28;20196;-77
2022/11/30 15:00:39;;;;;;;26.13;15.27;;;;;;;;;;5032980;28;20185;-77
2022/11/30 15:03:45;;;;;;;64.67;32.60;;;;;;;;;;5042848;28;20196;-76
2022/11/30 15:06:49;;;;;;;28.50;17.97;;;;;;;;;;5043479;28;20686;-77
2022/11/30 15:10:03;;;;;;;22.00;12.87;;;;;;;;;;5043484;28;20192;-77
2022/11/30 15:13:15;;;;;;;24.67;14.03;;;;;;;;;;5031802;28;20185;-77
2022/11/30 15:16:29;;;;;;;23.23;13.57;;;;;;;;;;5041687;28;20180;-76
2022/11/30 15:19:33;;;;;;;24.20;13.80;;;;;;;;;;5057993;28;20191;-77
2022/11/30 15:22:37;;;;;;;26.47;15.60;;;;;;;;;;5033812;28;20216;-76
2022/11/30 15:25:47;;;;;;;21.53;12.53;;;;;;;;;;5045533;28;20204;-77
2022/11/30 15:29:06;;;;;;;21.93;12.93;;;;;;;;;;5045653;28;20188;-76
2022/11/30 15:32:21;;;;;;;22.87;13.77;;;;;;;;;;5044903;28;20212;-76
2022/11/30 15:35:26;;;;;;;23.37;13.70;;;;;;;;;;5057220;28;20177;-77
2022/11/30 15:38:30;;;;;;;23.07;14.50;;;;;;;;;;5044826;28;20204;-76
2022/11/30 15:41:35;;;;;;;24.97;14.43;;;;;;;;;;5056658;28;20744;-76
2022/11/30 15:44:44;;;;;;;22.43;14.37;;;;;;;;;;5033760;28;20548;-77
2022/11/30 15:47:49;;;;;;;25.97;15.03;;;;;;;;;;5044899;28;20176;-77
2022/11/30 15:50:53;;;;;;;25.30;15.27;;;;;;;;;;5059101;28;20212;-77
2022/11/30 15:53:57;;;;;;;27.17;15.23;;;;;;;;;;5047634;28;20180;-77
2022/11/30 15:57:01;;;;;;;28.57;16.77;;;;;;;;;;5046188;28;20540;-77
2022/11/30 16:00:19;;;;;;;26.47;15.13;;;;;;;;;;5023491;28;20512;-77
2022/11/30 16:03:24;;;;;;;31.57;18.27;;;;;;;;;;5046333;28;20196;-77
2022/11/30 16:06:30;;;;;;;30.30;16.07;;;;;;;;;;5045314;28;20623;-78
2022/11/30 16:09:37;;;;;;;27.40;15.80;;;;;;;;;;5045770;28;20181;-77
2022/11/30 16:12:45;;;;;;;25.83;14.77;;;;;;;;;;5035244;28;20219;-78
2022/11/30 16:15:50;;;;;;;25.70;15.03;;;;;;;;;;5037038;28;20180;-78
2022/11/30 16:18:54;;;;;;;27.07;15.87;;;;;;;;;;5047197;28;20208;-77
2022/11/30 16:21:58;;;;;;;30.03;16.43;;;;;;;;;;5034918;28;20694;-78
2022/11/30 16:25:03;;;;;;;31.10;18.23;;;;;;;;;;5035944;28;20208;-78
2022/11/30 16:28:09;;;;;;;27.73;16.23;;;;;;;;;;5045386;28;20176;-78
2022/11/30 16:31:17;;;;;;;27.97;16.33;;;;;;;;;;5034915;28;20216;-78
2022/11/30 16:34:21;;;;;;;26.80;16.03;;;;;;;;;;5060096;28;20200;-78
2022/11/30 16:37:25;;;;;;;25.83;16.13;;;;;;;;;;5047448;28;20180;-78
2022/11/30 16:40:31;;;;;;;25.63;15.83;;;;;;;;;;5047247;28;20180;-78
2022/11/30 16:43:38;;;;;;;28.23;16.40;;;;;;;;;;5044016;28;20489;-78
2022/11/30 16:46:42;;;;;;;27.43;16.83;;;;;;;;;;5045314;28;20180;-78
2022/11/30 16:49:46;;;;;;;29.00;16.23;;;;;;;;;;5023298;28;20176;-78
2022/11/30 16:52:51;;;;;;;25.43;15.33;;;;;;;;;;5034577;28;20176;-78
2022/11/30 16:55:55;;;;;;;28.27;16.40;;;;;;;;;;5045655;28;20176;-77
2022/11/30 16:58:59;;;;;;;26.00;15.63;;;;;;;;;;5057643;28;20176;-78
2022/11/30 17:02:13;;;;;;;28.40;16.43;;;;;;;;;;5034055;28;20212;-78
2022/11/30 17:05:17;;;;;;;27.90;16.77;;;;;;;;;;5023788;28;20216;-78
2022/11/30 17:08:20;;;;;;;25.60;15.37;;;;;;;;;;5045080;28;20536;-78
2022/11/30 17:11:32;;;;;;;24.03;15.23;;;;;;;;;;5056323;28;20219;-77
2022/11/30 17:14:36;;;;;;;27.13;16.00;;;;;;;;;;5056371;28;20176;-78
2022/11/30 17:17:40;;;;;;;27.13;16.47;;;;;;;;;;5049436;28;20184;-78
2022/11/30 17:20:44;;;;;;;28.23;16.43;;;;;;;;;;5042906;28;20208;-77
2022/11/30 17:23:48;;;;;;;26.63;15.63;;;;;;;;;;5054956;28;20176;-77
2022/11/30 17:26:52;;;;;;;27.23;15.90;;;;;;;;;;5021436;28;20516;-77
2022/11/30 17:29:56;;;;;;;25.50;16.43;;;;;;;;;;5043743;28;20520;-77
2022/11/30 17:33:00;;;;;;;26.37;15.67;;;;;;;;;;5031461;28;20184;-77
2022/11/30 17:36:06;;;;;;;26.30;16.53;;;;;;;;;;5057219;28;20172;-78
2022/11/30 17:39:10;;;;;;;25.13;15.90;;;;;;;;;;5035000;28;20192;-78
2022/11/30 17:42:14;;;;;;;26.43;16.17;;;;;;;;;;5039074;28;20211;-78
2022/11/30 17:45:18;;;;;;;31.07;17.40;;;;;;;;;;5042353;28;20655;-77
2022/11/30 17:48:23;;;;;;;29.40;16.50;;;;;;;;;;5031389;28;20176;-77
2022/11/30 17:51:27;;;;;;;28.10;16.37;;;;;;;;;;5054975;28;20546;-77
2022/11/30 17:54:30;;;;;;;32.63;18.27;;;;;;;;;;5055589;28;20188;-78
2022/11/30 17:57:35;;;;;;;31.17;17.90;;;;;;;;;;5046285;28;20180;-78
2022/11/30 18:00:40;;;;;;;28.53;16.97;;;;;;;;;;5033591;28;20180;-78
2022/11/30 18:03:45;;;;;;;31.27;17.60;;;;;;;;;;5060475;28;20200;-78
2022/11/30 18:06:49;;;;;;;29.03;17.43;;;;;;;;;;5035377;28;20220;-78
2022/11/30 18:09:53;;;;;;;33.60;18.73;;;;;;;;;;5035202;28;20200;-78
2022/11/30 18:12:57;;;;;;;30.50;17.50;;;;;;;;;;5022650;28;20619;-78
2022/11/30 18:16:12;;;;;;;33.30;19.17;;;;;;;;;;5057389;28;20184;-78